sensor_id;sensor_type;location;lat;lon;timestamp;P1;durP1;ratioP1;P2;durP2;ratioP2
29728;SDS011;20055;51.498;11.960;2022-09-27T00:00:41;3.60;;;2.63;;
29728;SDS011;20055;51.498;11.960;2022-09-27T00:03:08;2.97;;;2.20;;
29728;SDS011;20055;51.498;11.960;2022-09-27T00:05:35;7.68;;;2.20;;
29728;SDS011;20055;51.498;11.960;2022-09-27T00:08:01;3.92;;;2.38;;
29728;SDS011;20055;51.498;11.960;2022-09-27T00:10:28;5.07;;;2.42;;
29728;SDS011;20055;51.498;11.960;2022-09-27T00:12:54;4.30;;;2.25;;
29728;SDS011;20055;51.498;11.960;2022-09-27T00:15:22;7.32;;;2.05;;
29728;SDS011;20055;51.498;11.960;2022-09-27T00:17:48;2.85;;;2.00;;
29728;SDS011;20055;51.498;11.960;2022-09-27T00:20:16;2.53;;;2.20;;
29728;SDS011;20055;51.498;11.960;2022-09-27T00:22:45;5.30;;;2.28;;
29728;SDS011;20055;51.498;11.960;2022-09-27T00:25:13;2.15;;;1.88;;
29728;SDS011;20055;51.498;11.960;2022-09-27T00:27:39;2.65;;;1.98;;
29728;SDS011;20055;51.498;11.960;2022-09-27T00:30:06;2.90;;;2.30;;
29728;SDS011;20055;51.498;11.960;2022-09-27T00:32:32;2.85;;;2.15;;
29728;SDS011;20055;51.498;11.960;2022-09-27T00:34:58;3.45;;;2.20;;
29728;SDS011;20055;51.498;11.960;2022-09-27T00:37:25;4.18;;;2.22;;
29728;SDS011;20055;51.498;11.960;2022-09-27T00:39:52;5.03;;;2.13;;
29728;SDS011;20055;51.498;11.960;2022-09-27T00:42:18;4.00;;;2.10;;
29728;SDS011;20055;51.498;11.960;2022-09-27T00:47:50;3.83;;;2.15;;
29728;SDS011;20055;51.498;11.960;2022-09-27T00:50:28;6.53;;;2.30;;
29728;SDS011;20055;51.498;11.960;2022-09-27T00:53:02;3.90;;;2.17;;
29728;SDS011;20055;51.498;11.960;2022-09-27T00:55:36;6.68;;;3.88;;
29728;SDS011;20055;51.498;11.960;2022-09-27T00:58:07;5.32;;;2.08;;
29728;SDS011;20055;51.498;11.960;2022-09-27T01:00:36;4.30;;;2.40;;
29728;SDS011;20055;51.498;11.960;2022-09-27T01:03:08;2.90;;;2.17;;
29728;SDS011;20055;51.498;11.960;2022-09-27T01:05:40;3.22;;;2.20;;
29728;SDS011;20055;51.498;11.960;2022-09-27T01:08:07;2.80;;;1.98;;
29728;SDS011;20055;51.498;11.960;2022-09-27T01:10:35;4.40;;;2.13;;
29728;SDS011;20055;51.498;11.960;2022-09-27T01:13:18;3.15;;;2.05;;
29728;SDS011;20055;51.498;11.960;2022-09-27T01:15:53;2.60;;;2.08;;
29728;SDS011;20055;51.498;11.960;2022-09-27T01:18:33;4.43;;;2.10;;
29728;SDS011;20055;51.498;11.960;2022-09-27T01:21:23;3.25;;;1.95;;
29728;SDS011;20055;51.498;11.960;2022-09-27T01:34:42;6.55;;;1.90;;
29728;SDS011;20055;51.498;11.960;2022-09-27T01:40:23;3.47;;;1.85;;
29728;SDS011;20055;51.498;11.960;2022-09-27T01:43:37;5.10;;;1.95;;
29728;SDS011;20055;51.498;11.960;2022-09-27T01:49:21;2.45;;;2.15;;
29728;SDS011;20055;51.498;11.960;2022-09-27T01:51:54;2.33;;;1.80;;
29728;SDS011;20055;51.498;11.960;2022-09-27T01:54:30;3.42;;;1.80;;
29728;SDS011;20055;51.498;11.960;2022-09-27T01:57:30;3.95;;;1.67;;
29728;SDS011;20055;51.498;11.960;2022-09-27T02:00:05;4.47;;;2.10;;
29728;SDS011;20055;51.498;11.960;2022-09-27T02:02:44;10.38;;;1.77;;
29728;SDS011;20055;51.498;11.960;2022-09-27T02:05:55;3.20;;;1.85;;
29728;SDS011;20055;51.498;11.960;2022-09-27T02:08:55;4.40;;;1.50;;
29728;SDS011;20055;51.498;11.960;2022-09-27T02:11:47;3.15;;;1.52;;
29728;SDS011;20055;51.498;11.960;2022-09-27T02:14:19;6.13;;;1.48;;
29728;SDS011;20055;51.498;11.960;2022-09-27T02:17:08;1.77;;;1.67;;
29728;SDS011;20055;51.498;11.960;2022-09-27T02:20:00;1.67;;;1.58;;
29728;SDS011;20055;51.498;11.960;2022-09-27T02:22:44;2.75;;;1.42;;
29728;SDS011;20055;51.498;11.960;2022-09-27T02:31:03;6.43;;;1.38;;
29728;SDS011;20055;51.498;11.960;2022-09-27T02:33:35;2.08;;;1.60;;
29728;SDS011;20055;51.498;11.960;2022-09-27T02:36:05;1.55;;;1.30;;
29728;SDS011;20055;51.498;11.960;2022-09-27T02:38:31;1.27;;;1.27;;
29728;SDS011;20055;51.498;11.960;2022-09-27T02:40:59;4.35;;;1.33;;
29728;SDS011;20055;51.498;11.960;2022-09-27T02:43:27;2.33;;;1.40;;
29728;SDS011;20055;51.498;11.960;2022-09-27T02:46:10;1.70;;;1.40;;
29728;SDS011;20055;51.498;11.960;2022-09-27T02:51:33;1.88;;;1.60;;
29728;SDS011;20055;51.498;11.960;2022-09-27T03:03:49;1.70;;;1.60;;
29728;SDS011;20055;51.498;11.960;2022-09-27T03:06:36;2.63;;;1.48;;
29728;SDS011;20055;51.498;11.960;2022-09-27T03:09:12;1.98;;;1.40;;
29728;SDS011;20055;51.498;11.960;2022-09-27T03:11:45;1.60;;;1.50;;
29728;SDS011;20055;51.498;11.960;2022-09-27T03:14:12;2.58;;;1.80;;
29728;SDS011;20055;51.498;11.960;2022-09-27T03:16:47;2.00;;;1.65;;
29728;SDS011;20055;51.498;11.960;2022-09-27T03:19:35;2.85;;;1.60;;
29728;SDS011;20055;51.498;11.960;2022-09-27T03:22:31;1.95;;;1.60;;
29728;SDS011;20055;51.498;11.960;2022-09-27T03:24:58;8.52;;;1.90;;
29728;SDS011;20055;51.498;11.960;2022-09-27T03:27:24;2.50;;;1.52;;
29728;SDS011;20055;51.498;11.960;2022-09-27T03:29:50;2.05;;;1.60;;
29728;SDS011;20055;51.498;11.960;2022-09-27T03:32:16;2.78;;;1.50;;
29728;SDS011;20055;51.498;11.960;2022-09-27T03:35:10;1.90;;;1.40;;
29728;SDS011;20055;51.498;11.960;2022-09-27T03:37:37;2.85;;;1.63;;
29728;SDS011;20055;51.498;11.960;2022-09-27T03:40:04;1.63;;;1.35;;
29728;SDS011;20055;51.498;11.960;2022-09-27T03:42:31;3.05;;;1.60;;
29728;SDS011;20055;51.498;11.960;2022-09-27T03:44:57;3.00;;;1.30;;
29728;SDS011;20055;51.498;11.960;2022-09-27T03:47:23;4.43;;;1.67;;
29728;SDS011;20055;51.498;11.960;2022-09-27T03:49:50;2.03;;;1.60;;
29728;SDS011;20055;51.498;11.960;2022-09-27T03:52:17;4.15;;;1.60;;
29728;SDS011;20055;51.498;11.960;2022-09-27T03:54:43;1.67;;;1.50;;
29728;SDS011;20055;51.498;11.960;2022-09-27T03:57:10;2.10;;;1.40;;
29728;SDS011;20055;51.498;11.960;2022-09-27T03:59:37;1.63;;;1.40;;
29728;SDS011;20055;51.498;11.960;2022-09-27T04:02:32;2.90;;;1.45;;
29728;SDS011;20055;51.498;11.960;2022-09-27T04:05:16;4.88;;;1.20;;
29728;SDS011;20055;51.498;11.960;2022-09-27T04:07:47;1.88;;;1.13;;
29728;SDS011;20055;51.498;11.960;2022-09-27T04:10:15;3.00;;;1.50;;
29728;SDS011;20055;51.498;11.960;2022-09-27T04:12:42;4.57;;;1.27;;
29728;SDS011;20055;51.498;11.960;2022-09-27T04:15:09;2.63;;;1.40;;
29728;SDS011;20055;51.498;11.960;2022-09-27T04:17:47;3.70;;;1.67;;
29728;SDS011;20055;51.498;11.960;2022-09-27T04:20:40;1.88;;;1.42;;
29728;SDS011;20055;51.498;11.960;2022-09-27T04:23:10;1.33;;;1.23;;
29728;SDS011;20055;51.498;11.960;2022-09-27T04:25:39;1.65;;;1.33;;
29728;SDS011;20055;51.498;11.960;2022-09-27T04:28:17;3.65;;;1.45;;
29728;SDS011;20055;51.498;11.960;2022-09-27T04:30:44;2.05;;;1.35;;
29728;SDS011;20055;51.498;11.960;2022-09-27T04:33:11;3.15;;;1.42;;
29728;SDS011;20055;51.498;11.960;2022-09-27T04:36:06;4.35;;;1.60;;
29728;SDS011;20055;51.498;11.960;2022-09-27T04:39:05;2.30;;;1.45;;
29728;SDS011;20055;51.498;11.960;2022-09-27T04:41:36;1.77;;;1.10;;
29728;SDS011;20055;51.498;11.960;2022-09-27T04:44:02;1.83;;;1.10;;
29728;SDS011;20055;51.498;11.960;2022-09-27T04:46:31;7.50;;;1.20;;
29728;SDS011;20055;51.498;11.960;2022-09-27T04:48:59;2.55;;;2.00;;
29728;SDS011;20055;51.498;11.960;2022-09-27T04:51:27;8.65;;;1.58;;
29728;SDS011;20055;51.498;11.960;2022-09-27T04:53:55;2.72;;;1.40;;
29728;SDS011;20055;51.498;11.960;2022-09-27T04:56:25;1.30;;;1.20;;
29728;SDS011;20055;51.498;11.960;2022-09-27T04:58:52;2.13;;;1.30;;
29728;SDS011;20055;51.498;11.960;2022-09-27T05:01:19;1.65;;;1.20;;
29728;SDS011;20055;51.498;11.960;2022-09-27T05:04:03;1.85;;;1.40;;
29728;SDS011;20055;51.498;11.960;2022-09-27T05:06:33;5.25;;;1.40;;
29728;SDS011;20055;51.498;11.960;2022-09-27T05:09:05;1.73;;;1.20;;
29728;SDS011;20055;51.498;11.960;2022-09-27T05:11:40;3.13;;;1.10;;
29728;SDS011;20055;51.498;11.960;2022-09-27T05:14:15;6.28;;;1.42;;
29728;SDS011;20055;51.498;11.960;2022-09-27T05:16:54;1.77;;;1.48;;
29728;SDS011;20055;51.498;11.960;2022-09-27T05:19:39;5.25;;;1.55;;
29728;SDS011;20055;51.498;11.960;2022-09-27T05:22:26;2.47;;;1.40;;
29728;SDS011;20055;51.498;11.960;2022-09-27T05:24:52;6.72;;;2.00;;
29728;SDS011;20055;51.498;11.960;2022-09-27T05:27:19;1.83;;;1.52;;
29728;SDS011;20055;51.498;11.960;2022-09-27T05:29:46;8.27;;;1.65;;
29728;SDS011;20055;51.498;11.960;2022-09-27T05:32:18;2.42;;;1.70;;
29728;SDS011;20055;51.498;11.960;2022-09-27T05:37:18;7.53;;;1.70;;
29728;SDS011;20055;51.498;11.960;2022-09-27T05:39:45;1.98;;;1.30;;
29728;SDS011;20055;51.498;11.960;2022-09-27T05:42:12;3.75;;;1.40;;
29728;SDS011;20055;51.498;11.960;2022-09-27T05:44:41;4.97;;;1.40;;
29728;SDS011;20055;51.498;11.960;2022-09-27T05:47:07;4.00;;;1.77;;
29728;SDS011;20055;51.498;11.960;2022-09-27T05:49:33;1.67;;;1.48;;
29728;SDS011;20055;51.498;11.960;2022-09-27T05:52:02;6.60;;;1.50;;
29728;SDS011;20055;51.498;11.960;2022-09-27T05:54:28;3.08;;;1.80;;
29728;SDS011;20055;51.498;11.960;2022-09-27T05:56:56;2.53;;;2.00;;
29728;SDS011;20055;51.498;11.960;2022-09-27T05:59:31;2.60;;;1.65;;
29728;SDS011;20055;51.498;11.960;2022-09-27T06:02:16;4.22;;;1.75;;
29728;SDS011;20055;51.498;11.960;2022-09-27T06:05:01;3.42;;;1.67;;
29728;SDS011;20055;51.498;11.960;2022-09-27T06:07:46;12.82;;;2.97;;
29728;SDS011;20055;51.498;11.960;2022-09-27T06:10:22;3.60;;;1.48;;
29728;SDS011;20055;51.498;11.960;2022-09-27T06:12:49;9.48;;;1.60;;
29728;SDS011;20055;51.498;11.960;2022-09-27T06:15:33;3.13;;;1.40;;
29728;SDS011;20055;51.498;11.960;2022-09-27T06:18:07;2.67;;;1.75;;
29728;SDS011;20055;51.498;11.960;2022-09-27T06:20:36;3.10;;;1.27;;
29728;SDS011;20055;51.498;11.960;2022-09-27T06:23:04;1.90;;;1.48;;
29728;SDS011;20055;51.498;11.960;2022-09-27T06:25:32;3.22;;;1.42;;
29728;SDS011;20055;51.498;11.960;2022-09-27T06:28:20;1.25;;;1.10;;
29728;SDS011;20055;51.498;11.960;2022-09-27T06:30:49;5.28;;;1.35;;
29728;SDS011;20055;51.498;11.960;2022-09-27T06:33:26;4.78;;;1.20;;
29728;SDS011;20055;51.498;11.960;2022-09-27T06:36:01;1.85;;;1.20;;
29728;SDS011;20055;51.498;11.960;2022-09-27T06:38:34;2.80;;;1.23;;
29728;SDS011;20055;51.498;11.960;2022-09-27T06:41:11;6.93;;;1.35;;
29728;SDS011;20055;51.498;11.960;2022-09-27T06:44:16;4.10;;;1.70;;
29728;SDS011;20055;51.498;11.960;2022-09-27T06:47:15;4.38;;;1.20;;
29728;SDS011;20055;51.498;11.960;2022-09-27T06:50:14;2.80;;;1.17;;
29728;SDS011;20055;51.498;11.960;2022-09-27T06:52:49;1.20;;;1.10;;
29728;SDS011;20055;51.498;11.960;2022-09-27T06:55:16;1.20;;;1.10;;
29728;SDS011;20055;51.498;11.960;2022-09-27T06:57:42;6.25;;;1.25;;
29728;SDS011;20055;51.498;11.960;2022-09-27T07:00:27;2.88;;;1.85;;
29728;SDS011;20055;51.498;11.960;2022-09-27T07:03:13;3.00;;;1.20;;
29728;SDS011;20055;51.498;11.960;2022-09-27T07:05:59;1.58;;;1.33;;
29728;SDS011;20055;51.498;11.960;2022-09-27T07:08:38;5.28;;;1.42;;
29728;SDS011;20055;51.498;11.960;2022-09-27T07:11:05;5.88;;;2.05;;
29728;SDS011;20055;51.498;11.960;2022-09-27T07:13:33;3.33;;;1.50;;
29728;SDS011;20055;51.498;11.960;2022-09-27T07:16:05;3.33;;;1.20;;
29728;SDS011;20055;51.498;11.960;2022-09-27T07:18:32;1.88;;;1.30;;
29728;SDS011;20055;51.498;11.960;2022-09-27T07:20:59;3.53;;;1.40;;
29728;SDS011;20055;51.498;11.960;2022-09-27T07:23:26;1.90;;;1.40;;
29728;SDS011;20055;51.498;11.960;2022-09-27T07:25:53;3.42;;;1.55;;
29728;SDS011;20055;51.498;11.960;2022-09-27T07:28:19;1.80;;;1.27;;
29728;SDS011;20055;51.498;11.960;2022-09-27T07:30:47;3.38;;;1.45;;
29728;SDS011;20055;51.498;11.960;2022-09-27T07:33:13;3.40;;;1.50;;
29728;SDS011;20055;51.498;11.960;2022-09-27T07:35:40;3.10;;;1.48;;
29728;SDS011;20055;51.498;11.960;2022-09-27T07:38:08;2.63;;;1.83;;
29728;SDS011;20055;51.498;11.960;2022-09-27T07:43:05;1.58;;;1.40;;
29728;SDS011;20055;51.498;11.960;2022-09-27T07:45:35;1.38;;;1.27;;
29728;SDS011;20055;51.498;11.960;2022-09-27T07:48:16;5.82;;;1.40;;
29728;SDS011;20055;51.498;11.960;2022-09-27T07:51:02;3.78;;;1.40;;
29728;SDS011;20055;51.498;11.960;2022-09-27T07:53:51;3.33;;;1.30;;
29728;SDS011;20055;51.498;11.960;2022-09-27T07:56:46;4.35;;;1.33;;
29728;SDS011;20055;51.498;11.960;2022-09-27T07:59:15;5.18;;;2.08;;
29728;SDS011;20055;51.498;11.960;2022-09-27T08:01:41;1.63;;;1.10;;
29728;SDS011;20055;51.498;11.960;2022-09-27T08:04:07;1.40;;;1.20;;
29728;SDS011;20055;51.498;11.960;2022-09-27T08:06:33;2.40;;;1.20;;
29728;SDS011;20055;51.498;11.960;2022-09-27T08:09:00;6.60;;;1.52;;
29728;SDS011;20055;51.498;11.960;2022-09-27T08:11:29;5.32;;;1.27;;
29728;SDS011;20055;51.498;11.960;2022-09-27T08:13:55;1.27;;;1.17;;
29728;SDS011;20055;51.498;11.960;2022-09-27T08:16:27;1.50;;;1.38;;
29728;SDS011;20055;51.498;11.960;2022-09-27T08:19:19;1.00;;;1.00;;
29728;SDS011;20055;51.498;11.960;2022-09-27T08:22:02;5.60;;;2.20;;
29728;SDS011;20055;51.498;11.960;2022-09-27T08:24:38;1.25;;;1.15;;
29728;SDS011;20055;51.498;11.960;2022-09-27T08:27:19;3.08;;;1.10;;
29728;SDS011;20055;51.498;11.960;2022-09-27T08:29:53;1.70;;;1.00;;
29728;SDS011;20055;51.498;11.960;2022-09-27T08:32:19;2.25;;;1.20;;
29728;SDS011;20055;51.498;11.960;2022-09-27T08:34:46;1.42;;;1.30;;
29728;SDS011;20055;51.498;11.960;2022-09-27T08:37:12;5.68;;;1.25;;
29728;SDS011;20055;51.498;11.960;2022-09-27T08:39:38;5.13;;;2.55;;
29728;SDS011;20055;51.498;11.960;2022-09-27T08:42:09;7.63;;;1.73;;
29728;SDS011;20055;51.498;11.960;2022-09-27T08:47:38;0.93;;;0.85;;
29728;SDS011;20055;51.498;11.960;2022-09-27T08:55:44;10.45;;;1.42;;
29728;SDS011;20055;51.498;11.960;2022-09-27T09:00:52;2.90;;;1.20;;
29728;SDS011;20055;51.498;11.960;2022-09-27T09:03:23;7.40;;;1.27;;
29728;SDS011;20055;51.498;11.960;2022-09-27T09:08:40;4.57;;;1.20;;
29728;SDS011;20055;51.498;11.960;2022-09-27T09:11:20;1.00;;;1.00;;
29728;SDS011;20055;51.498;11.960;2022-09-27T09:14:25;4.53;;;1.42;;
29728;SDS011;20055;51.498;11.960;2022-09-27T09:17:16;1.52;;;1.30;;
29728;SDS011;20055;51.498;11.960;2022-09-27T09:26:17;1.17;;;1.02;;
29728;SDS011;20055;51.498;11.960;2022-09-27T09:31:57;2.45;;;1.38;;
29728;SDS011;20055;51.498;11.960;2022-09-27T09:34:45;3.38;;;1.27;;
29728;SDS011;20055;51.498;11.960;2022-09-27T09:39:53;2.20;;;1.10;;
29728;SDS011;20055;51.498;11.960;2022-09-27T09:42:25;1.30;;;1.10;;
29728;SDS011;20055;51.498;11.960;2022-09-27T09:47:44;4.60;;;1.40;;
29728;SDS011;20055;51.498;11.960;2022-09-27T09:50:24;3.00;;;1.48;;
29728;SDS011;20055;51.498;11.960;2022-09-27T09:52:55;4.35;;;1.55;;
29728;SDS011;20055;51.498;11.960;2022-09-27T09:55:27;2.55;;;1.50;;
29728;SDS011;20055;51.498;11.960;2022-09-27T09:58:03;2.30;;;1.20;;
29728;SDS011;20055;51.498;11.960;2022-09-27T10:01:07;1.15;;;1.05;;
29728;SDS011;20055;51.498;11.960;2022-09-27T10:03:44;2.20;;;1.02;;
29728;SDS011;20055;51.498;11.960;2022-09-27T10:06:11;1.73;;;1.02;;
29728;SDS011;20055;51.498;11.960;2022-09-27T10:08:39;7.05;;;1.00;;
29728;SDS011;20055;51.498;11.960;2022-09-27T10:11:21;2.15;;;1.30;;
29728;SDS011;20055;51.498;11.960;2022-09-27T10:14:11;2.03;;;1.20;;
29728;SDS011;20055;51.498;11.960;2022-09-27T10:16:40;2.35;;;1.02;;
29728;SDS011;20055;51.498;11.960;2022-09-27T10:19:10;2.25;;;1.30;;
29728;SDS011;20055;51.498;11.960;2022-09-27T10:21:39;4.20;;;1.20;;
29728;SDS011;20055;51.498;11.960;2022-09-27T10:24:09;2.53;;;0.90;;
29728;SDS011;20055;51.498;11.960;2022-09-27T10:26:56;4.10;;;1.40;;
29728;SDS011;20055;51.498;11.960;2022-09-27T10:29:31;1.77;;;1.20;;
29728;SDS011;20055;51.498;11.960;2022-09-27T10:32:00;2.80;;;1.30;;
29728;SDS011;20055;51.498;11.960;2022-09-27T10:34:40;1.20;;;1.10;;
29728;SDS011;20055;51.498;11.960;2022-09-27T10:37:22;2.75;;;1.30;;
29728;SDS011;20055;51.498;11.960;2022-09-27T10:39:58;3.10;;;1.30;;
29728;SDS011;20055;51.498;11.960;2022-09-27T10:48:00;3.75;;;1.52;;
29728;SDS011;20055;51.498;11.960;2022-09-27T10:50:55;2.75;;;1.35;;
29728;SDS011;20055;51.498;11.960;2022-09-27T10:53:47;3.65;;;1.20;;
29728;SDS011;20055;51.498;11.960;2022-09-27T10:56:28;7.33;;;1.63;;
29728;SDS011;20055;51.498;11.960;2022-09-27T10:59:00;7.88;;;1.30;;
29728;SDS011;20055;51.498;11.960;2022-09-27T11:01:38;1.40;;;1.30;;
29728;SDS011;20055;51.498;11.960;2022-09-27T11:04:22;3.53;;;1.52;;
29728;SDS011;20055;51.498;11.960;2022-09-27T11:07:16;1.60;;;1.17;;
29728;SDS011;20055;51.498;11.960;2022-09-27T11:10:00;3.30;;;1.55;;
29728;SDS011;20055;51.498;11.960;2022-09-27T11:12:33;5.43;;;1.42;;
29728;SDS011;20055;51.498;11.960;2022-09-27T11:15:02;2.00;;;1.40;;
29728;SDS011;20055;51.498;11.960;2022-09-27T11:17:42;2.00;;;1.20;;
29728;SDS011;20055;51.498;11.960;2022-09-27T11:20:26;2.65;;;1.27;;
29728;SDS011;20055;51.498;11.960;2022-09-27T11:28:41;1.50;;;1.17;;
29728;SDS011;20055;51.498;11.960;2022-09-27T11:34:39;2.75;;;1.38;;
29728;SDS011;20055;51.498;11.960;2022-09-27T11:39:59;2.08;;;1.13;;
29728;SDS011;20055;51.498;11.960;2022-09-27T11:45:32;3.80;;;1.60;;
29728;SDS011;20055;51.498;11.960;2022-09-27T11:51:02;3.35;;;2.10;;
29728;SDS011;20055;51.498;11.960;2022-09-27T11:53:51;1.65;;;1.25;;
29728;SDS011;20055;51.498;11.960;2022-09-27T11:56:38;5.15;;;2.78;;
29728;SDS011;20055;51.498;11.960;2022-09-27T12:02:08;10.80;;;1.80;;
29728;SDS011;20055;51.498;11.960;2022-09-27T12:05:18;1.70;;;1.35;;
29728;SDS011;20055;51.498;11.960;2022-09-27T12:11:00;2.38;;;1.45;;
29728;SDS011;20055;51.498;11.960;2022-09-27T12:13:44;1.67;;;1.23;;
29728;SDS011;20055;51.498;11.960;2022-09-27T12:16:15;2.53;;;1.23;;
29728;SDS011;20055;51.498;11.960;2022-09-27T12:18:44;2.20;;;1.45;;
29728;SDS011;20055;51.498;11.960;2022-09-27T12:21:41;2.45;;;1.30;;
29728;SDS011;20055;51.498;11.960;2022-09-27T12:24:08;1.70;;;1.00;;
29728;SDS011;20055;51.498;11.960;2022-09-27T12:27:04;1.90;;;1.25;;
29728;SDS011;20055;51.498;11.960;2022-09-27T12:29:35;3.58;;;2.58;;
29728;SDS011;20055;51.498;11.960;2022-09-27T12:32:41;4.53;;;1.90;;
29728;SDS011;20055;51.498;11.960;2022-09-27T12:35:23;1.70;;;1.30;;
29728;SDS011;20055;51.498;11.960;2022-09-27T12:38:01;1.20;;;1.10;;
29728;SDS011;20055;51.498;11.960;2022-09-27T12:40:38;6.28;;;1.60;;
29728;SDS011;20055;51.498;11.960;2022-09-27T12:43:30;2.65;;;1.50;;
29728;SDS011;20055;51.498;11.960;2022-09-27T12:52:08;1.70;;;1.52;;
29728;SDS011;20055;51.498;11.960;2022-09-27T12:54:42;1.83;;;1.48;;
29728;SDS011;20055;51.498;11.960;2022-09-27T12:57:24;3.22;;;1.35;;
29728;SDS011;20055;51.498;11.960;2022-09-27T13:00:05;2.22;;;1.50;;
29728;SDS011;20055;51.498;11.960;2022-09-27T13:03:20;1.95;;;1.40;;
29728;SDS011;20055;51.498;11.960;2022-09-27T13:06:21;5.07;;;1.55;;
29728;SDS011;20055;51.498;11.960;2022-09-27T13:14:33;6.20;;;1.70;;
29728;SDS011;20055;51.498;11.960;2022-09-27T13:17:04;5.60;;;1.70;;
29728;SDS011;20055;51.498;11.960;2022-09-27T13:22:46;1.88;;;1.75;;
29728;SDS011;20055;51.498;11.960;2022-09-27T13:25:01;5.65;;;1.95;;
29728;SDS011;20055;51.498;11.960;2022-09-27T13:27:55;3.50;;;2.20;;
29728;SDS011;20055;51.498;11.960;2022-09-27T13:38:31;5.38;;;2.13;;
29728;SDS011;20055;51.498;11.960;2022-09-27T13:41:14;5.50;;;2.22;;
29728;SDS011;20055;51.498;11.960;2022-09-27T13:44:06;4.85;;;2.13;;
29728;SDS011;20055;51.498;11.960;2022-09-27T13:46:59;6.07;;;2.40;;
29728;SDS011;20055;51.498;11.960;2022-09-27T13:49:36;3.90;;;2.00;;
29728;SDS011;20055;51.498;11.960;2022-09-27T13:54:51;5.20;;;2.70;;
29728;SDS011;20055;51.498;11.960;2022-09-27T14:00:09;4.13;;;1.80;;
29728;SDS011;20055;51.498;11.960;2022-09-27T14:02:54;6.43;;;2.45;;
29728;SDS011;20055;51.498;11.960;2022-09-27T14:05:29;4.05;;;1.70;;
29728;SDS011;20055;51.498;11.960;2022-09-27T14:08:03;1.65;;;1.55;;
29728;SDS011;20055;51.498;11.960;2022-09-27T14:10:31;2.17;;;1.80;;
29728;SDS011;20055;51.498;11.960;2022-09-27T14:13:01;1.67;;;1.58;;
29728;SDS011;20055;51.498;11.960;2022-09-27T14:15:30;2.70;;;1.35;;
29728;SDS011;20055;51.498;11.960;2022-09-27T14:18:00;1.92;;;1.40;;
29728;SDS011;20055;51.498;11.960;2022-09-27T14:22:57;1.63;;;1.30;;
29728;SDS011;20055;51.498;11.960;2022-09-27T14:25:30;3.80;;;1.70;;
29728;SDS011;20055;51.498;11.960;2022-09-27T14:27:57;3.30;;;1.67;;
29728;SDS011;20055;51.498;11.960;2022-09-27T14:30:32;2.50;;;1.30;;
29728;SDS011;20055;51.498;11.960;2022-09-27T14:33:29;3.65;;;1.77;;
29728;SDS011;20055;51.498;11.960;2022-09-27T14:36:22;2.90;;;1.63;;
29728;SDS011;20055;51.498;11.960;2022-09-27T14:39:24;5.72;;;1.88;;
29728;SDS011;20055;51.498;11.960;2022-09-27T14:41:58;3.47;;;2.00;;
29728;SDS011;20055;51.498;11.960;2022-09-27T14:44:25;3.95;;;1.70;;
29728;SDS011;20055;51.498;11.960;2022-09-27T14:49:50;2.80;;;1.75;;
29728;SDS011;20055;51.498;11.960;2022-09-27T14:52:20;8.70;;;1.77;;
29728;SDS011;20055;51.498;11.960;2022-09-27T14:54:56;2.88;;;1.50;;
29728;SDS011;20055;51.498;11.960;2022-09-27T14:57:28;3.65;;;1.90;;
29728;SDS011;20055;51.498;11.960;2022-09-27T14:59:57;6.93;;;1.70;;
29728;SDS011;20055;51.498;11.960;2022-09-27T15:02:28;6.57;;;2.75;;
29728;SDS011;20055;51.498;11.960;2022-09-27T15:04:55;2.97;;;2.00;;
29728;SDS011;20055;51.498;11.960;2022-09-27T15:07:21;3.30;;;1.48;;
29728;SDS011;20055;51.498;11.960;2022-09-27T15:09:48;2.38;;;1.40;;
29728;SDS011;20055;51.498;11.960;2022-09-27T15:12:17;2.13;;;1.63;;
29728;SDS011;20055;51.498;11.960;2022-09-27T15:14:50;5.07;;;2.10;;
29728;SDS011;20055;51.498;11.960;2022-09-27T15:17:18;4.63;;;1.30;;
29728;SDS011;20055;51.498;11.960;2022-09-27T15:19:55;5.38;;;1.30;;
29728;SDS011;20055;51.498;11.960;2022-09-27T15:22:43;2.70;;;1.63;;
29728;SDS011;20055;51.498;11.960;2022-09-27T15:25:17;5.65;;;2.20;;
29728;SDS011;20055;51.498;11.960;2022-09-27T15:27:50;4.50;;;1.60;;
29728;SDS011;20055;51.498;11.960;2022-09-27T15:30:20;4.95;;;1.67;;
29728;SDS011;20055;51.498;11.960;2022-09-27T15:32:54;3.30;;;1.50;;
29728;SDS011;20055;51.498;11.960;2022-09-27T15:35:22;2.58;;;1.50;;
29728;SDS011;20055;51.498;11.960;2022-09-27T15:37:51;3.88;;;1.45;;
29728;SDS011;20055;51.498;11.960;2022-09-27T15:46:01;2.50;;;1.20;;
29728;SDS011;20055;51.498;11.960;2022-09-27T15:48:30;1.40;;;1.08;;
29728;SDS011;20055;51.498;11.960;2022-09-27T15:50:58;5.30;;;1.35;;
29728;SDS011;20055;51.498;11.960;2022-09-27T15:55:57;1.10;;;1.00;;
29728;SDS011;20055;51.498;11.960;2022-09-27T15:58:24;1.25;;;1.15;;
29728;SDS011;20055;51.498;11.960;2022-09-27T16:00:55;4.97;;;1.70;;
29728;SDS011;20055;51.498;11.960;2022-09-27T16:03:30;2.60;;;1.38;;
29728;SDS011;20055;51.498;11.960;2022-09-27T16:05:57;5.05;;;1.50;;
29728;SDS011;20055;51.498;11.960;2022-09-27T16:08:25;2.70;;;1.50;;
29728;SDS011;20055;51.498;11.960;2022-09-27T16:10:53;1.60;;;1.48;;
29728;SDS011;20055;51.498;11.960;2022-09-27T16:13:21;1.45;;;1.33;;
29728;SDS011;20055;51.498;11.960;2022-09-27T16:15:48;5.22;;;2.67;;
29728;SDS011;20055;51.498;11.960;2022-09-27T16:18:15;3.15;;;1.48;;
29728;SDS011;20055;51.498;11.960;2022-09-27T16:20:42;3.25;;;1.50;;
29728;SDS011;20055;51.498;11.960;2022-09-27T16:23:09;2.38;;;1.20;;
29728;SDS011;20055;51.498;11.960;2022-09-27T16:25:35;2.47;;;1.42;;
29728;SDS011;20055;51.498;11.960;2022-09-27T16:28:02;1.50;;;1.40;;
29728;SDS011;20055;51.498;11.960;2022-09-27T16:30:30;4.80;;;1.70;;
29728;SDS011;20055;51.498;11.960;2022-09-27T16:32:57;2.88;;;1.80;;
29728;SDS011;20055;51.498;11.960;2022-09-27T16:35:24;4.97;;;1.50;;
29728;SDS011;20055;51.498;11.960;2022-09-27T16:37:51;1.67;;;1.45;;
29728;SDS011;20055;51.498;11.960;2022-09-27T16:40:17;3.80;;;1.40;;
29728;SDS011;20055;51.498;11.960;2022-09-27T16:42:45;5.28;;;1.40;;
29728;SDS011;20055;51.498;11.960;2022-09-27T16:45:13;1.90;;;1.45;;
29728;SDS011;20055;51.498;11.960;2022-09-27T16:47:41;3.13;;;1.52;;
29728;SDS011;20055;51.498;11.960;2022-09-27T16:50:09;1.80;;;1.52;;
29728;SDS011;20055;51.498;11.960;2022-09-27T16:52:55;3.42;;;2.03;;
29728;SDS011;20055;51.498;11.960;2022-09-27T16:55:22;9.55;;;4.65;;
29728;SDS011;20055;51.498;11.960;2022-09-27T16:57:49;11.30;;;3.92;;
29728;SDS011;20055;51.498;11.960;2022-09-27T17:00:16;9.45;;;3.63;;
29728;SDS011;20055;51.498;11.960;2022-09-27T17:02:43;7.80;;;3.70;;
29728;SDS011;20055;51.498;11.960;2022-09-27T17:05:13;16.63;;;5.97;;
29728;SDS011;20055;51.498;11.960;2022-09-27T17:07:40;8.98;;;3.92;;
29728;SDS011;20055;51.498;11.960;2022-09-27T17:10:07;10.43;;;4.90;;
29728;SDS011;20055;51.498;11.960;2022-09-27T17:12:34;5.95;;;2.92;;
29728;SDS011;20055;51.498;11.960;2022-09-27T17:15:00;8.23;;;3.95;;
29728;SDS011;20055;51.498;11.960;2022-09-27T17:17:27;4.53;;;2.67;;
29728;SDS011;20055;51.498;11.960;2022-09-27T17:19:53;4.70;;;3.10;;
29728;SDS011;20055;51.498;11.960;2022-09-27T17:22:19;4.07;;;2.78;;
29728;SDS011;20055;51.498;11.960;2022-09-27T17:24:45;7.25;;;3.10;;
29728;SDS011;20055;51.498;11.960;2022-09-27T17:27:12;3.80;;;2.60;;
29728;SDS011;20055;51.498;11.960;2022-09-27T17:29:38;3.38;;;2.13;;
29728;SDS011;20055;51.498;11.960;2022-09-27T17:32:04;5.32;;;2.10;;
29728;SDS011;20055;51.498;11.960;2022-09-27T17:34:33;2.22;;;1.83;;
29728;SDS011;20055;51.498;11.960;2022-09-27T17:37:01;3.67;;;2.22;;
29728;SDS011;20055;51.498;11.960;2022-09-27T17:39:29;2.67;;;1.88;;